sensor_id;sensor_type;location;lat;lon;timestamp;pressure;altitude;pressure_sealevel;temperature;humidity
13869;BME280;7004;48.206;16.402;2023-02-23T00:01:57;99558.63;;;7.22;93.70
13869;BME280;7004;48.206;16.402;2023-02-23T00:04:33;99556.38;;;7.32;93.44
13869;BME280;7004;48.206;16.402;2023-02-23T00:06:59;99553.81;;;7.31;93.94
13869;BME280;7004;48.206;16.402;2023-02-23T00:09:26;99554.66;;;7.31;93.52
13869;BME280;7004;48.206;16.402;2023-02-23T00:12:02;99547.25;;;7.39;92.72
13869;BME280;7004;48.206;16.402;2023-02-23T00:14:35;99546.38;;;7.39;92.35
13869;BME280;7004;48.206;16.402;2023-02-23T00:17:06;99548.50;;;7.32;93.24
13869;BME280;7004;48.206;16.402;2023-02-23T00:19:39;99548.25;;;7.37;93.21
13869;BME280;7004;48.206;16.402;2023-02-23T00:22:08;99550.00;;;7.36;92.30
13869;BME280;7004;48.206;16.402;2023-02-23T00:24:34;99546.88;;;7.30;92.98
13869;BME280;7004;48.206;16.402;2023-02-23T00:27:02;99548.56;;;7.31;93.29
13869;BME280;7004;48.206;16.402;2023-02-23T00:29:31;99546.09;;;7.28;92.82
13869;BME280;7004;48.206;16.402;2023-02-23T00:32:04;99547.50;;;7.17;94.20
13869;BME280;7004;48.206;16.402;2023-02-23T00:34:30;99542.09;;;7.20;93.50
13869;BME280;7004;48.206;16.402;2023-02-23T00:37:00;99540.78;;;7.12;93.74
13869;BME280;7004;48.206;16.402;2023-02-23T00:39:27;99544.94;;;7.16;94.30
13869;BME280;7004;48.206;16.402;2023-02-23T00:41:54;99540.56;;;7.16;93.35
13869;BME280;7004;48.206;16.402;2023-02-23T00:44:22;99542.19;;;7.19;94.01
13869;BME280;7004;48.206;16.402;2023-02-23T00:46:49;99544.03;;;7.17;93.56
13869;BME280;7004;48.206;16.402;2023-02-23T00:49:18;99542.31;;;7.16;93.84
13869;BME280;7004;48.206;16.402;2023-02-23T00:51:45;99542.75;;;7.08;93.93
13869;BME280;7004;48.206;16.402;2023-02-23T00:54:15;99541.25;;;7.03;94.35
13869;BME280;7004;48.206;16.402;2023-02-23T00:56:41;99544.00;;;6.84;95.26
13869;BME280;7004;48.206;16.402;2023-02-23T00:59:08;99543.22;;;6.99;94.42
13869;BME280;7004;48.206;16.402;2023-02-23T01:01:35;99542.38;;;6.98;93.93
13869;BME280;7004;48.206;16.402;2023-02-23T01:04:04;99549.56;;;6.77;94.66
13869;BME280;7004;48.206;16.402;2023-02-23T01:06:32;99543.06;;;6.85;94.93
13869;BME280;7004;48.206;16.402;2023-02-23T01:08:58;99538.66;;;6.85;94.53
13869;BME280;7004;48.206;16.402;2023-02-23T01:11:27;99537.72;;;6.86;94.73
13869;BME280;7004;48.206;16.402;2023-02-23T01:13:56;99537.50;;;6.73;94.95
13869;BME280;7004;48.206;16.402;2023-02-23T01:16:27;99529.41;;;6.78;95.05
13869;BME280;7004;48.206;16.402;2023-02-23T01:18:56;99529.16;;;6.65;95.67
13869;BME280;7004;48.206;16.402;2023-02-23T01:21:31;99526.06;;;6.57;95.25
13869;BME280;7004;48.206;16.402;2023-02-23T01:23:58;99528.53;;;6.60;95.73
13869;BME280;7004;48.206;16.402;2023-02-23T01:26:28;99523.59;;;6.54;96.37
13869;BME280;7004;48.206;16.402;2023-02-23T01:28:59;99519.72;;;6.61;95.57
13869;BME280;7004;48.206;16.402;2023-02-23T01:31:28;99523.06;;;6.47;96.87
13869;BME280;7004;48.206;16.402;2023-02-23T01:34:00;99525.47;;;6.52;96.52
13869;BME280;7004;48.206;16.402;2023-02-23T01:36:28;99518.19;;;6.57;95.91
13869;BME280;7004;48.206;16.402;2023-02-23T01:38:55;99517.19;;;6.60;95.56
13869;BME280;7004;48.206;16.402;2023-02-23T01:41:23;99520.03;;;6.55;95.33
13869;BME280;7004;48.206;16.402;2023-02-23T01:44:05;99513.84;;;6.56;96.14
13869;BME280;7004;48.206;16.402;2023-02-23T01:46:38;99512.31;;;6.34;97.13
13869;BME280;7004;48.206;16.402;2023-02-23T01:49:07;99508.38;;;6.26;97.37
13869;BME280;7004;48.206;16.402;2023-02-23T01:51:43;99507.75;;;6.21;97.59
13869;BME280;7004;48.206;16.402;2023-02-23T01:54:20;99501.88;;;6.16;98.03
13869;BME280;7004;48.206;16.402;2023-02-23T01:56:51;99505.13;;;6.38;97.70
13869;BME280;7004;48.206;16.402;2023-02-23T01:59:44;99508.06;;;6.32;97.68
13869;BME280;7004;48.206;16.402;2023-02-23T02:02:12;99503.88;;;6.45;97.40
13869;BME280;7004;48.206;16.402;2023-02-23T02:04:40;99503.06;;;6.45;97.62
13869;BME280;7004;48.206;16.402;2023-02-23T02:07:30;99505.06;;;6.40;97.56
13869;BME280;7004;48.206;16.402;2023-02-23T02:09:59;99501.81;;;6.34;97.29
13869;BME280;7004;48.206;16.402;2023-02-23T02:12:44;99503.75;;;6.31;97.30
13869;BME280;7004;48.206;16.402;2023-02-23T02:15:12;99504.28;;;6.20;97.91
13869;BME280;7004;48.206;16.402;2023-02-23T02:42:59;99495.81;;;5.77;100.00
13869;BME280;7004;48.206;16.402;2023-02-23T02:45:33;99495.13;;;5.91;100.00
13869;BME280;7004;48.206;16.402;2023-02-23T02:48:32;99497.28;;;6.02;99.39
13869;BME280;7004;48.206;16.402;2023-02-23T02:51:41;99498.22;;;6.01;98.92
13869;BME280;7004;48.206;16.402;2023-02-23T02:54:29;99496.38;;;6.03;99.13
13869;BME280;7004;48.206;16.402;2023-02-23T02:57:02;99494.22;;;5.92;99.89
13869;BME280;7004;48.206;16.402;2023-02-23T02:59:29;99504.13;;;6.04;99.10
13869;BME280;7004;48.206;16.402;2023-02-23T03:02:23;99504.88;;;6.08;99.02
13869;BME280;7004;48.206;16.402;2023-02-23T03:05:17;99504.00;;;5.88;99.89
13869;BME280;7004;48.206;16.402;2023-02-23T03:11:38;99496.84;;;6.11;98.17
13869;BME280;7004;48.206;16.402;2023-02-23T03:15:17;99504.31;;;5.82;99.84
13869;BME280;7004;48.206;16.402;2023-02-23T03:18:14;99506.38;;;5.95;99.21
13869;BME280;7004;48.206;16.402;2023-02-23T03:21:14;99515.09;;;5.95;99.11
13869;BME280;7004;48.206;16.402;2023-02-23T03:24:28;99512.16;;;5.82;99.84
13869;BME280;7004;48.206;16.402;2023-02-23T03:27:56;99515.63;;;5.83;100.00
13869;BME280;7004;48.206;16.402;2023-02-23T03:31:15;99516.72;;;5.79;100.00
13869;BME280;7004;48.206;16.402;2023-02-23T03:34:27;99511.38;;;5.80;99.80
13869;BME280;7004;48.206;16.402;2023-02-23T03:38:04;99517.78;;;5.75;100.00
13869;BME280;7004;48.206;16.402;2023-02-23T03:40:41;99513.31;;;5.77;100.00
13869;BME280;7004;48.206;16.402;2023-02-23T03:43:46;99511.47;;;5.79;100.00
13869;BME280;7004;48.206;16.402;2023-02-23T03:46:35;99512.59;;;5.54;100.00
13869;BME280;7004;48.206;16.402;2023-02-23T03:49:23;99519.97;;;5.65;100.00
13869;BME280;7004;48.206;16.402;2023-02-23T03:52:22;99524.16;;;5.69;100.00
13869;BME280;7004;48.206;16.402;2023-02-23T03:55:19;99523.97;;;5.74;100.00
13869;BME280;7004;48.206;16.402;2023-02-23T03:58:13;99523.72;;;5.40;100.00
13869;BME280;7004;48.206;16.402;2023-02-23T04:01:03;99520.41;;;5.75;100.00
13869;BME280;7004;48.206;16.402;2023-02-23T04:03:50;99524.00;;;5.91;100.00
13869;BME280;7004;48.206;16.402;2023-02-23T04:06:41;99534.22;;;5.59;100.00
13869;BME280;7004;48.206;16.402;2023-02-23T04:09:27;99524.09;;;5.89;100.00
13869;BME280;7004;48.206;16.402;2023-02-23T04:12:20;99534.72;;;5.67;100.00
13869;BME280;7004;48.206;16.402;2023-02-23T04:15:29;99528.06;;;5.60;100.00
13869;BME280;7004;48.206;16.402;2023-02-23T04:17:57;99536.19;;;5.73;100.00
13869;BME280;7004;48.206;16.402;2023-02-23T04:20:24;99534.81;;;5.26;100.00
13869;BME280;7004;48.206;16.402;2023-02-23T04:22:51;99532.38;;;5.42;100.00
13869;BME280;7004;48.206;16.402;2023-02-23T04:25:17;99538.34;;;5.84;100.00
13869;BME280;7004;48.206;16.402;2023-02-23T04:27:49;99535.66;;;5.66;100.00
13869;BME280;7004;48.206;16.402;2023-02-23T04:30:16;99534.88;;;5.64;100.00
13869;BME280;7004;48.206;16.402;2023-02-23T04:32:43;99538.56;;;5.79;100.00
13869;BME280;7004;48.206;16.402;2023-02-23T04:35:12;99541.22;;;5.78;100.00
13869;BME280;7004;48.206;16.402;2023-02-23T04:37:38;99530.91;;;5.94;100.00
13869;BME280;7004;48.206;16.402;2023-02-23T04:40:06;99536.09;;;6.31;100.00
13869;BME280;7004;48.206;16.402;2023-02-23T04:42:32;99537.63;;;5.99;100.00
13869;BME280;7004;48.206;16.402;2023-02-23T04:44:58;99533.28;;;6.17;100.00
13869;BME280;7004;48.206;16.402;2023-02-23T04:47:24;99539.13;;;6.05;100.00
13869;BME280;7004;48.206;16.402;2023-02-23T04:49:51;99532.38;;;5.99;100.00
13869;BME280;7004;48.206;16.402;2023-02-23T04:52:28;99533.53;;;5.94;100.00
13869;BME280;7004;48.206;16.402;2023-02-23T04:54:54;99539.88;;;6.07;100.00
13869;BME280;7004;48.206;16.402;2023-02-23T04:57:20;99542.13;;;5.97;100.00
13869;BME280;7004;48.206;16.402;2023-02-23T04:59:46;99540.72;;;5.88;100.00
13869;BME280;7004;48.206;16.402;2023-02-23T05:02:13;99535.00;;;6.18;100.00
13869;BME280;7004;48.206;16.402;2023-02-23T05:04:39;99532.84;;;6.26;100.00
13869;BME280;7004;48.206;16.402;2023-02-23T05:07:05;99541.16;;;6.17;100.00
13869;BME280;7004;48.206;16.402;2023-02-23T05:09:31;99533.78;;;6.06;100.00
13869;BME280;7004;48.206;16.402;2023-02-23T05:11:57;99539.63;;;6.13;100.00
13869;BME280;7004;48.206;16.402;2023-02-23T05:14:24;99534.06;;;6.19;100.00
13869;BME280;7004;48.206;16.402;2023-02-23T05:16:50;99533.38;;;6.16;100.00
13869;BME280;7004;48.206;16.402;2023-02-23T05:19:17;99529.13;;;6.13;100.00
13869;BME280;7004;48.206;16.402;2023-02-23T05:21:43;99531.22;;;6.24;100.00
13869;BME280;7004;48.206;16.402;2023-02-23T05:24:09;99533.78;;;6.06;100.00
13869;BME280;7004;48.206;16.402;2023-02-23T05:26:36;99529.22;;;6.29;100.00
13869;BME280;7004;48.206;16.402;2023-02-23T05:29:02;99540.50;;;6.12;100.00
13869;BME280;7004;48.206;16.402;2023-02-23T05:31:29;99539.66;;;5.93;100.00
13869;BME280;7004;48.206;16.402;2023-02-23T05:33:55;99533.63;;;6.28;100.00
13869;BME280;7004;48.206;16.402;2023-02-23T05:36:21;99543.44;;;6.06;100.00
13869;BME280;7004;48.206;16.402;2023-02-23T05:38:48;99534.47;;;6.29;100.00
13869;BME280;7004;48.206;16.402;2023-02-23T05:41:18;99538.81;;;6.47;100.00
13869;BME280;7004;48.206;16.402;2023-02-23T05:43:44;99540.19;;;6.37;100.00
13869;BME280;7004;48.206;16.402;2023-02-23T05:46:15;99550.47;;;6.42;100.00
13869;BME280;7004;48.206;16.402;2023-02-23T05:48:42;99544.75;;;6.33;100.00
13869;BME280;7004;48.206;16.402;2023-02-23T05:51:11;99539.41;;;6.35;100.00
13869;BME280;7004;48.206;16.402;2023-02-23T05:53:38;99549.53;;;6.25;100.00
13869;BME280;7004;48.206;16.402;2023-02-23T05:56:07;99551.72;;;6.52;100.00
13869;BME280;7004;48.206;16.402;2023-02-23T05:58:34;99549.63;;;6.05;100.00
13869;BME280;7004;48.206;16.402;2023-02-23T06:01:00;99560.88;;;6.43;100.00
13869;BME280;7004;48.206;16.402;2023-02-23T06:03:26;99557.19;;;6.47;100.00
13869;BME280;7004;48.206;16.402;2023-02-23T06:05:55;99558.25;;;6.43;100.00
13869;BME280;7004;48.206;16.402;2023-02-23T06:08:23;99564.13;;;6.48;100.00
13869;BME280;7004;48.206;16.402;2023-02-23T06:10:50;99563.69;;;6.57;100.00
13869;BME280;7004;48.206;16.402;2023-02-23T06:13:17;99570.31;;;6.47;100.00
13869;BME280;7004;48.206;16.402;2023-02-23T06:15:43;99570.03;;;6.71;100.00
13869;BME280;7004;48.206;16.402;2023-02-23T06:18:10;99572.75;;;6.69;99.62
13869;BME280;7004;48.206;16.402;2023-02-23T06:20:37;99575.47;;;6.85;100.00
13869;BME280;7004;48.206;16.402;2023-02-23T06:23:03;99580.00;;;6.82;99.03
13869;BME280;7004;48.206;16.402;2023-02-23T06:25:30;99583.88;;;6.92;100.00
13869;BME280;7004;48.206;16.402;2023-02-23T06:27:56;99589.44;;;6.86;98.60
13869;BME280;7004;48.206;16.402;2023-02-23T06:30:23;99586.97;;;6.83;100.00
13869;BME280;7004;48.206;16.402;2023-02-23T06:32:49;99587.59;;;6.88;100.00
13869;BME280;7004;48.206;16.402;2023-02-23T06:35:15;99590.84;;;6.93;100.00
13869;BME280;7004;48.206;16.402;2023-02-23T06:37:41;99587.81;;;6.83;100.00
13869;BME280;7004;48.206;16.402;2023-02-23T06:40:09;99602.19;;;6.93;99.72
13869;BME280;7004;48.206;16.402;2023-02-23T06:42:36;99591.75;;;6.92;100.00
13869;BME280;7004;48.206;16.402;2023-02-23T06:45:04;99597.38;;;7.02;99.64
13869;BME280;7004;48.206;16.402;2023-02-23T06:47:31;99596.63;;;7.17;98.94
13869;BME280;7004;48.206;16.402;2023-02-23T06:49:58;99604.34;;;7.03;99.63
13869;BME280;7004;48.206;16.402;2023-02-23T06:52:25;99597.56;;;6.98;99.14
13869;BME280;7004;48.206;16.402;2023-02-23T06:54:51;99591.84;;;6.90;99.87
13869;BME280;7004;48.206;16.402;2023-02-23T06:57:17;99600.72;;;6.88;100.00
13869;BME280;7004;48.206;16.402;2023-02-23T06:59:44;99599.25;;;6.99;99.94
13869;BME280;7004;48.206;16.402;2023-02-23T07:02:12;99604.97;;;6.90;99.20
13869;BME280;7004;48.206;16.402;2023-02-23T07:04:39;99607.44;;;7.11;98.53
13869;BME280;7004;48.206;16.402;2023-02-23T07:07:05;99605.97;;;7.05;98.63
13869;BME280;7004;48.206;16.402;2023-02-23T07:09:31;99612.16;;;7.04;99.03
13869;BME280;7004;48.206;16.402;2023-02-23T07:11:58;99610.69;;;6.98;99.14
13869;BME280;7004;48.206;16.402;2023-02-23T07:14:24;99609.75;;;7.17;97.46
13869;BME280;7004;48.206;16.402;2023-02-23T07:16:50;99609.13;;;7.12;97.04
13869;BME280;7004;48.206;16.402;2023-02-23T07:19:17;99619.38;;;7.51;96.49
13869;BME280;7004;48.206;16.402;2023-02-23T07:21:43;99614.44;;;7.45;96.25
13869;BME280;7004;48.206;16.402;2023-02-23T07:24:11;99612.94;;;7.06;97.33
13869;BME280;7004;48.206;16.402;2023-02-23T07:26:37;99609.97;;;7.47;96.22
13869;BME280;7004;48.206;16.402;2023-02-23T07:29:05;99605.81;;;7.08;98.01
13869;BME280;7004;48.206;16.402;2023-02-23T07:31:31;99616.88;;;7.15;97.65
13869;BME280;7004;48.206;16.402;2023-02-23T07:33:58;99615.00;;;7.34;95.80
13869;BME280;7004;48.206;16.402;2023-02-23T07:36:24;99617.63;;;6.99;98.86
13869;BME280;7004;48.206;16.402;2023-02-23T07:38:50;99619.56;;;7.13;97.63
13869;BME280;7004;48.206;16.402;2023-02-23T07:41:17;99616.63;;;7.37;97.32
13869;BME280;7004;48.206;16.402;2023-02-23T07:43:43;99617.47;;;7.37;97.31
13869;BME280;7004;48.206;16.402;2023-02-23T07:46:09;99620.91;;;7.55;96.09
13869;BME280;7004;48.206;16.402;2023-02-23T07:48:35;99615.78;;;7.52;97.19
13869;BME280;7004;48.206;16.402;2023-02-23T07:51:07;99621.31;;;7.48;96.45
13869;BME280;7004;48.206;16.402;2023-02-23T07:53:33;99618.88;;;7.27;96.72
13869;BME280;7004;48.206;16.402;2023-02-23T07:56:00;99625.81;;;7.79;94.28
13869;BME280;7004;48.206;16.402;2023-02-23T07:58:27;99623.00;;;7.82;93.17
13869;BME280;7004;48.206;16.402;2023-02-23T08:00:53;99634.91;;;7.56;95.73
13869;BME280;7004;48.206;16.402;2023-02-23T08:03:19;99625.28;;;7.72;93.61
13869;BME280;7004;48.206;16.402;2023-02-23T08:05:46;99625.41;;;7.86;92.49
13869;BME280;7004;48.206;16.402;2023-02-23T08:08:12;99631.72;;;8.16;91.69
13869;BME280;7004;48.206;16.402;2023-02-23T08:10:38;99631.88;;;7.97;91.48
13869;BME280;7004;48.206;16.402;2023-02-23T08:13:05;99626.25;;;8.03;92.63
13869;BME280;7004;48.206;16.402;2023-02-23T08:15:32;99632.97;;;8.08;91.33
13869;BME280;7004;48.206;16.402;2023-02-23T08:17:58;99634.22;;;7.85;92.81
13869;BME280;7004;48.206;16.402;2023-02-23T08:20:25;99642.19;;;7.68;92.76
13869;BME280;7004;48.206;16.402;2023-02-23T08:22:58;99635.84;;;8.04;92.50
13869;BME280;7004;48.206;16.402;2023-02-23T08:25:25;99632.06;;;8.09;91.59
13869;BME280;7004;48.206;16.402;2023-02-23T08:27:52;99642.81;;;7.89;92.19
13869;BME280;7004;48.206;16.402;2023-02-23T08:30:21;99638.41;;;8.21;90.72
13869;BME280;7004;48.206;16.402;2023-02-23T08:32:48;99640.56;;;8.30;90.02
13869;BME280;7004;48.206;16.402;2023-02-23T08:35:16;99629.78;;;8.51;90.13
13869;BME280;7004;48.206;16.402;2023-02-23T08:37:45;99634.59;;;8.74;86.35
13869;BME280;7004;48.206;16.402;2023-02-23T08:40:12;99629.69;;;8.99;86.63
13869;BME280;7004;48.206;16.402;2023-02-23T08:42:43;99641.47;;;9.37;84.45
13869;BME280;7004;48.206;16.402;2023-02-23T08:45:10;99633.50;;;9.09;85.36
13869;BME280;7004;48.206;16.402;2023-02-23T08:47:37;99634.16;;;9.71;81.76
13869;BME280;7004;48.206;16.402;2023-02-23T08:50:04;99644.47;;;9.46;82.31
13869;BME280;7004;48.206;16.402;2023-02-23T08:52:31;99643.59;;;8.23;87.85
13869;BME280;7004;48.206;16.402;2023-02-23T08:54:57;99643.09;;;8.64;86.21
13869;BME280;7004;48.206;16.402;2023-02-23T08:57:23;99640.50;;;8.94;85.57
13869;BME280;7004;48.206;16.402;2023-02-23T08:59:49;99644.13;;;9.07;85.30
13869;BME280;7004;48.206;16.402;2023-02-23T09:02:15;99634.69;;;9.03;84.57
13869;BME280;7004;48.206;16.402;2023-02-23T09:04:42;99629.59;;;9.59;82.58
13869;BME280;7004;48.206;16.402;2023-02-23T09:07:16;99640.81;;;9.04;84.81
13869;BME280;7004;48.206;16.402;2023-02-23T09:09:43;99637.09;;;8.92;85.79
13869;BME280;7004;48.206;16.402;2023-02-23T09:12:09;99644.28;;;8.74;85.11
13869;BME280;7004;48.206;16.402;2023-02-23T09:14:35;99641.19;;;8.82;84.68
13869;BME280;7004;48.206;16.402;2023-02-23T09:17:02;99641.38;;;8.79;85.88
13869;BME280;7004;48.206;16.402;2023-02-23T09:19:28;99639.22;;;9.74;82.31
13869;BME280;7004;48.206;16.402;2023-02-23T09:21:54;99635.34;;;9.51;81.86
13869;BME280;7004;48.206;16.402;2023-02-23T09:24:21;99635.56;;;9.62;82.10
13869;BME280;7004;48.206;16.402;2023-02-23T09:26:48;99632.38;;;9.86;80.91
13869;BME280;7004;48.206;16.402;2023-02-23T09:29:14;99639.72;;;9.81;80.07
13869;BME280;7004;48.206;16.402;2023-02-23T09:31:40;99648.94;;;9.88;80.13
13869;BME280;7004;48.206;16.402;2023-02-23T09:34:08;99642.31;;;10.38;78.04
13869;BME280;7004;48.206;16.402;2023-02-23T09:36:35;99638.06;;;10.21;78.44
13869;BME280;7004;48.206;16.402;2023-02-23T09:39:01;99641.97;;;10.30;78.05
13869;BME280;7004;48.206;16.402;2023-02-23T09:41:53;99635.88;;;10.42;77.54
13869;BME280;7004;48.206;16.402;2023-02-23T09:44:56;99627.56;;;11.15;74.57
13869;BME280;7004;48.206;16.402;2023-02-23T09:50:27;99631.06;;;10.49;76.06
13869;BME280;7004;48.206;16.402;2023-02-23T09:53:02;99634.13;;;11.23;73.56
13869;BME280;7004;48.206;16.402;2023-02-23T09:55:31;99634.56;;;11.29;73.52
13869;BME280;7004;48.206;16.402;2023-02-23T09:58:06;99629.16;;;11.31;73.16
13869;BME280;7004;48.206;16.402;2023-02-23T10:00:41;99632.13;;;11.77;71.79
13869;BME280;7004;48.206;16.402;2023-02-23T10:03:24;99636.69;;;11.37;72.95
13869;BME280;7004;48.206;16.402;2023-02-23T10:06:08;99630.75;;;11.97;70.15
13869;BME280;7004;48.206;16.402;2023-02-23T10:11:45;99629.81;;;11.47;71.57
13869;BME280;7004;48.206;16.402;2023-02-23T10:20:25;99633.81;;;11.40;72.50
13869;BME280;7004;48.206;16.402;2023-02-23T10:22:55;99619.88;;;12.26;68.52
13869;BME280;7004;48.206;16.402;2023-02-23T10:25:30;99622.69;;;12.49;68.42
13869;BME280;7004;48.206;16.402;2023-02-23T10:27:59;99618.28;;;12.84;66.62
13869;BME280;7004;48.206;16.402;2023-02-23T10:30:30;99612.94;;;13.08;64.58
13869;BME280;7004;48.206;16.402;2023-02-23T10:35:43;99618.97;;;12.14;68.01
13869;BME280;7004;48.206;16.402;2023-02-23T10:38:16;99612.94;;;13.44;63.42
13869;BME280;7004;48.206;16.402;2023-02-23T10:40:52;99600.69;;;14.54;59.55
13869;BME280;7004;48.206;16.402;2023-02-23T10:43:19;99612.84;;;13.79;61.44
13869;BME280;7004;48.206;16.402;2023-02-23T10:45:50;99608.13;;;13.14;62.62
13869;BME280;7004;48.206;16.402;2023-02-23T10:48:31;99605.06;;;14.32;59.58
13869;BME280;7004;48.206;16.402;2023-02-23T10:51:00;99598.81;;;14.11;60.63
13869;BME280;7004;48.206;16.402;2023-02-23T10:53:35;99609.34;;;13.90;60.71
13869;BME280;7004;48.206;16.402;2023-02-23T10:56:12;99602.16;;;14.35;59.69
13869;BME280;7004;48.206;16.402;2023-02-23T11:01:09;99595.78;;;13.48;61.43
13869;BME280;7004;48.206;16.402;2023-02-23T11:03:47;99584.38;;;14.36;58.87
13869;BME280;7004;48.206;16.402;2023-02-23T11:06:33;99586.88;;;13.60;59.50
13869;BME280;7004;48.206;16.402;2023-02-23T11:09:23;99579.50;;;14.09;59.30
13869;BME280;7004;48.206;16.402;2023-02-23T11:12:00;99579.91;;;14.80;56.77
13869;BME280;7004;48.206;16.402;2023-02-23T11:14:30;99573.22;;;14.10;58.25
13869;BME280;7004;48.206;16.402;2023-02-23T11:16:57;99566.81;;;14.45;57.58
13869;BME280;7004;48.206;16.402;2023-02-23T11:19:36;99584.56;;;13.67;60.74
13869;BME280;7004;48.206;16.402;2023-02-23T11:22:04;99568.81;;;13.07;63.47
13869;BME280;7004;48.206;16.402;2023-02-23T11:24:38;99567.97;;;13.18;63.21
13869;BME280;7004;48.206;16.402;2023-02-23T11:27:23;99563.28;;;12.51;64.61
13869;BME280;7004;48.206;16.402;2023-02-23T11:29:54;99563.19;;;12.99;63.29
13869;BME280;7004;48.206;16.402;2023-02-23T11:32:28;99564.56;;;12.70;64.62
13869;BME280;7004;48.206;16.402;2023-02-23T11:37:45;99545.81;;;14.53;58.39
13869;BME280;7004;48.206;16.402;2023-02-23T11:40:27;99547.59;;;14.63;56.85
13869;BME280;7004;48.206;16.402;2023-02-23T11:43:13;99546.25;;;14.90;57.23
13869;BME280;7004;48.206;16.402;2023-02-23T11:45:48;99554.28;;;12.65;64.13
13869;BME280;7004;48.206;16.402;2023-02-23T11:48:32;99547.66;;;13.41;61.97
13869;BME280;7004;48.206;16.402;2023-02-23T11:51:00;99546.50;;;13.21;63.46
13869;BME280;7004;48.206;16.402;2023-02-23T11:53:38;99539.16;;;13.92;59.52
13869;BME280;7004;48.206;16.402;2023-02-23T11:56:07;99536.53;;;14.36;57.54
13869;BME280;7004;48.206;16.402;2023-02-23T11:58:46;99536.47;;;14.58;57.84
13869;BME280;7004;48.206;16.402;2023-02-23T12:01:19;99528.63;;;14.78;56.41
13869;BME280;7004;48.206;16.402;2023-02-23T12:06:44;99533.63;;;15.34;55.77
13869;BME280;7004;48.206;16.402;2023-02-23T12:12:19;99527.47;;;15.34;55.22
13869;BME280;7004;48.206;16.402;2023-02-23T12:14:55;99524.75;;;15.24;56.39
13869;BME280;7004;48.206;16.402;2023-02-23T12:17:30;99518.13;;;15.18;55.96
13869;BME280;7004;48.206;16.402;2023-02-23T12:20:11;99516.34;;;14.66;56.18
13869;BME280;7004;48.206;16.402;2023-02-23T12:23:05;99522.16;;;15.13;55.99
13869;BME280;7004;48.206;16.402;2023-02-23T12:25:50;99522.41;;;15.10;56.32
13869;BME280;7004;48.206;16.402;2023-02-23T12:31:27;99509.81;;;15.42;54.71
13869;BME280;7004;48.206;16.402;2023-02-23T12:34:01;99509.06;;;14.03;59.72
13869;BME280;7004;48.206;16.402;2023-02-23T12:36:52;99506.66;;;14.11;59.04
13869;BME280;7004;48.206;16.402;2023-02-23T12:39:30;99491.63;;;13.78;61.00
13869;BME280;7004;48.206;16.402;2023-02-23T12:42:22;99498.75;;;14.21;60.85
13869;BME280;7004;48.206;16.402;2023-02-23T12:44:53;99497.78;;;15.17;57.65
13869;BME280;7004;48.206;16.402;2023-02-23T12:47:44;99486.22;;;14.76;58.04
13869;BME280;7004;48.206;16.402;2023-02-23T12:50:33;99492.81;;;15.03;57.05
13869;BME280;7004;48.206;16.402;2023-02-23T13:01:05;99477.34;;;14.23;58.45
13869;BME280;7004;48.206;16.402;2023-02-23T13:10:14;99467.84;;;14.41;57.83
13869;BME280;7004;48.206;16.402;2023-02-23T13:16:20;99467.28;;;15.21;55.60
13869;BME280;7004;48.206;16.402;2023-02-23T13:19:16;99467.81;;;14.73;56.41
13869;BME280;7004;48.206;16.402;2023-02-23T13:22:12;99466.41;;;14.69;56.18
13869;BME280;7004;48.206;16.402;2023-02-23T13:24:47;99465.22;;;14.83;57.08
13869;BME280;7004;48.206;16.402;2023-02-23T13:29:55;99464.84;;;14.88;56.71
13869;BME280;7004;48.206;16.402;2023-02-23T13:32:31;99468.53;;;14.54;58.24
13869;BME280;7004;48.206;16.402;2023-02-23T13:35:00;99464.56;;;14.49;58.60
13869;BME280;7004;48.206;16.402;2023-02-23T13:49:47;99463.53;;;14.29;60.04
13869;BME280;7004;48.206;16.402;2023-02-23T13:52:37;99457.09;;;14.10;59.93
13869;BME280;7004;48.206;16.402;2023-02-23T13:58:02;99452.50;;;13.80;60.78
13869;BME280;7004;48.206;16.402;2023-02-23T14:00:30;99456.38;;;14.08;60.28
13869;BME280;7004;48.206;16.402;2023-02-23T14:03:03;99448.50;;;14.18;59.39
13869;BME280;7004;48.206;16.402;2023-02-23T14:05:40;99456.06;;;14.02;60.11
13869;BME280;7004;48.206;16.402;2023-02-23T14:08:07;99454.34;;;14.01;60.58
13869;BME280;7004;48.206;16.402;2023-02-23T14:10:42;99452.03;;;14.07;61.36
13869;BME280;7004;48.206;16.402;2023-02-23T14:15:46;99441.91;;;14.33;58.81
13869;BME280;7004;48.206;16.402;2023-02-23T14:28:47;99436.03;;;14.18;58.53
13869;BME280;7004;48.206;16.402;2023-02-23T14:31:34;99439.16;;;14.24;58.57
13869;BME280;7004;48.206;16.402;2023-02-23T14:34:08;99437.75;;;14.19;58.33
13869;BME280;7004;48.206;16.402;2023-02-23T14:36:42;99437.94;;;13.95;58.83
13869;BME280;7004;48.206;16.402;2023-02-23T14:39:21;99442.97;;;14.10;58.73
13869;BME280;7004;48.206;16.402;2023-02-23T14:41:58;99432.84;;;14.04;58.78
13869;BME280;7004;48.206;16.402;2023-02-23T14:49:35;99428.16;;;13.96;59.37
13869;BME280;7004;48.206;16.402;2023-02-23T14:52:22;99431.88;;;14.05;59.48
13869;BME280;7004;48.206;16.402;2023-02-23T14:54:51;99426.00;;;13.90;59.99
13869;BME280;7004;48.206;16.402;2023-02-23T14:57:24;99428.25;;;13.62;60.73
13869;BME280;7004;48.206;16.402;2023-02-23T15:00:00;99417.84;;;13.70;60.71
13869;BME280;7004;48.206;16.402;2023-02-23T15:02:29;99425.25;;;13.55;61.41
13869;BME280;7004;48.206;16.402;2023-02-23T15:04:56;99423.28;;;13.69;61.17
13869;BME280;7004;48.206;16.402;2023-02-23T15:07:40;99418.97;;;13.45;61.82
13869;BME280;7004;48.206;16.402;2023-02-23T15:10:21;99423.31;;;13.58;61.43
13869;BME280;7004;48.206;16.402;2023-02-23T15:12:49;99420.53;;;13.59;62.59
13869;BME280;7004;48.206;16.402;2023-02-23T15:15:23;99415.94;;;13.61;63.00
13869;BME280;7004;48.206;16.402;2023-02-23T15:17:54;99410.25;;;13.66;61.86
13869;BME280;7004;48.206;16.402;2023-02-23T15:20:30;99413.94;;;13.42;62.82
13869;BME280;7004;48.206;16.402;2023-02-23T15:23:01;99414.75;;;13.09;64.14
13869;BME280;7004;48.206;16.402;2023-02-23T15:25:38;99405.59;;;13.24;64.19
13869;BME280;7004;48.206;16.402;2023-02-23T15:28:26;99409.31;;;13.22;63.98
13869;BME280;7004;48.206;16.402;2023-02-23T15:31:01;99405.00;;;13.32;63.94